Weyauwega, Wisconsin
Current Conditions -  °F | °C
As of 8:35 AM on Monday 20 Oct 2014 (Local Time) from KPCZ Reporting Station
Overcast Overcast  
Wind Chill: 46°   Ceiling: 4800
Heat Index: 49°   Visibility: 10mi
Dew Point: 45°   Wind: 8mph
Humidity: 84%   Direction: 300°WNW
Pressure: 29.86"   Gusts: NA
Location:  44.32°N, 88.93°W
Report Text: KPCZ 201335Z AUTO 30007KT 10SM OVC048 10/07 A2986 RMK AO2 T00970072
Loading
Personal Weather Stations






























Interactive Weather Map
Tropical Storm Tracking
New forecast layout! Learn more

10-Day Weather Forecast

Advertisements
Track Severe Weather on mobile